Appling, Georgia
Current Conditions -  °F | °C
As of 12:55 PM on Sunday 21 Dec 2014 (Local Time) from KHQU Reporting Station
Overcast Overcast  
Wind Chill: 55°   Ceiling: 1900
Heat Index: 55°   Visibility: 10mi
Dew Point: 48°   Wind: 5mph
Humidity: 78%   Direction: 110°ESE
Pressure: 30.22"   Gusts: NA
Location:  33.55°N, 82.32°W
Report Text: KHQU 211755Z AUTO 11004KT 10SM OVC019 13/09 A3022 RMK AO1 T01260089 10126 20082
Loading
Personal Weather Stations






























Interactive Weather Map New forecast layout! Learn more

10-Day Weather Forecast

Advertisements
Track Severe Weather on mobile